createdAt,value
2023-12-22T00:00:17.200Z,99669.78
2023-12-22T00:02:44.290Z,99659.34
2023-12-22T00:05:11.863Z,99649.69
2023-12-22T00:07:38.908Z,99656.66
2023-12-22T00:10:06.352Z,99660.28
2023-12-22T00:12:33.270Z,99672.75
2023-12-22T00:15:00.330Z,99692.22
2023-12-22T00:17:27.313Z,99673.75
2023-12-22T00:19:54.356Z,99667.63
2023-12-22T00:22:21.264Z,99664.19
2023-12-22T00:24:48.435Z,99670.38
2023-12-22T00:27:15.345Z,99666.91
2023-12-22T00:29:42.254Z,99647.72
2023-12-22T00:32:10.936Z,99664.59
2023-12-22T00:34:38.088Z,99679.81
2023-12-22T00:37:05.892Z,99687.88
2023-12-22T00:39:33.527Z,99687.94
2023-12-22T00:42:00.650Z,99688.78
2023-12-22T00:44:28.785Z,99696.63
2023-12-22T00:46:56.947Z,99690.50
2023-12-22T00:49:24.095Z,99697.38
2023-12-22T00:51:51.177Z,99690.69
2023-12-22T00:54:18.188Z,99684.75
2023-12-22T00:56:45.327Z,99689.41
2023-12-22T00:59:12.511Z,99678.25
2023-12-22T01:01:39.659Z,99686.53
2023-12-22T01:04:06.754Z,99676.47
2023-12-22T01:06:39.234Z,99676.13
2023-12-22T01:09:06.699Z,99679.47
2023-12-22T01:11:33.890Z,99677.75
2023-12-22T01:14:00.990Z,99669.13
2023-12-22T01:16:28.483Z,99655.84
2023-12-22T01:18:55.464Z,99645.22
2023-12-22T01:21:22.511Z,99650.50
2023-12-22T01:23:49.531Z,99660.34
2023-12-22T01:26:16.571Z,99651.66
2023-12-22T01:28:43.482Z,99636.81
2023-12-22T01:31:10.329Z,99644.06
2023-12-22T01:33:37.523Z,99643.00
2023-12-22T01:36:05.106Z,99628.03
2023-12-22T01:38:32.041Z,99632.31
2023-12-22T01:40:59.199Z,99632.72
2023-12-22T01:43:26.409Z,99637.78
2023-12-22T01:45:58.129Z,99648.94
2023-12-22T01:48:26.505Z,99656.44
2023-12-22T01:50:56.130Z,99650.09
2023-12-22T01:53:26.896Z,99668.25
2023-12-22T01:55:56.566Z,99665.31
2023-12-22T01:58:25.253Z,99672.03
2023-12-22T02:00:54.993Z,99648.06
2023-12-22T02:03:22.789Z,99669.22
2023-12-22T02:05:50.888Z,99669.88
2023-12-22T02:08:19.782Z,99676.63
2023-12-22T02:10:46.807Z,99680.97
2023-12-22T02:13:14.824Z,99673.06
2023-12-22T02:15:41.986Z,99674.84
2023-12-22T02:18:26.437Z,99681.28
2023-12-22T02:20:54.754Z,99676.69
2023-12-22T02:23:21.677Z,99686.50
2023-12-22T02:25:58.544Z,99677.88
2023-12-22T02:28:26.354Z,99691.00
2023-12-22T02:31:05.391Z,99686.88
2023-12-22T02:33:34.644Z,99675.59
2023-12-22T02:36:05.799Z,99676.53
2023-12-22T02:38:36.008Z,99681.03
2023-12-22T02:41:03.740Z,99672.34
2023-12-22T02:43:30.914Z,99682.97
2023-12-22T02:45:57.880Z,99676.94
2023-12-22T02:48:24.940Z,99680.63
2023-12-22T02:50:52.096Z,99678.69
2023-12-22T02:53:18.978Z,99661.22
2023-12-22T02:55:45.909Z,99679.00
2023-12-22T02:58:12.974Z,99685.91
2023-12-22T03:00:41.325Z,99686.06
2023-12-22T03:03:08.301Z,99696.78
2023-12-22T03:05:35.750Z,99684.72
2023-12-22T03:08:02.799Z,99675.22
2023-12-22T03:10:31.101Z,99669.09
2023-12-22T03:12:58.107Z,99675.97
2023-12-22T03:15:25.146Z,99679.44
2023-12-22T03:17:52.485Z,99690.44
2023-12-22T03:20:19.517Z,99685.16
2023-12-22T03:22:46.630Z,99689.59
2023-12-22T03:25:13.659Z,99680.03
2023-12-22T03:27:40.608Z,99685.31
2023-12-22T03:30:08.476Z,99686.25
2023-12-22T03:32:35.486Z,99671.97
2023-12-22T03:35:02.472Z,99664.97
2023-12-22T03:37:29.547Z,99661.31
2023-12-22T03:39:56.482Z,99660.59
2023-12-22T03:42:23.351Z,99658.75
2023-12-22T03:44:50.250Z,99662.66
2023-12-22T03:47:17.278Z,99659.56
2023-12-22T03:49:44.308Z,99662.09
2023-12-22T03:52:11.838Z,99653.31
2023-12-22T03:54:38.773Z,99667.94
2023-12-22T03:57:05.640Z,99672.13
2023-12-22T03:59:32.635Z,99668.94
2023-12-22T04:02:02.415Z,99659.53
2023-12-22T04:04:29.596Z,99663.19
2023-12-22T04:06:56.671Z,99675.09
2023-12-22T04:09:23.740Z,99674.22
2023-12-22T04:11:50.750Z,99689.50
2023-12-22T04:14:19.324Z,99688.75
2023-12-22T04:16:46.803Z,99690.53
2023-12-22T04:19:13.800Z,99696.03
2023-12-22T04:21:40.860Z,99686.31
2023-12-22T04:24:07.852Z,99697.13
2023-12-22T04:26:34.776Z,99694.53
2023-12-22T04:29:01.760Z,99692.03
2023-12-22T04:31:28.878Z,99699.97
2023-12-22T04:33:56.981Z,99693.06
2023-12-22T04:36:24.272Z,99692.94
2023-12-22T04:38:51.160Z,99707.56
2023-12-22T04:41:18.639Z,99704.75
2023-12-22T04:43:45.636Z,99713.25
2023-12-22T04:46:12.695Z,99714.50
2023-12-22T04:48:39.847Z,99709.53
2023-12-22T04:51:06.885Z,99715.22
2023-12-22T04:53:33.930Z,99711.97
2023-12-22T04:56:00.926Z,99718.63
2023-12-22T04:58:27.923Z,99709.31
2023-12-22T05:00:54.956Z,99717.25
2023-12-22T05:03:21.857Z,99711.16
2023-12-22T05:05:48.898Z,99712.00
2023-12-22T05:08:17.562Z,99717.59
2023-12-22T05:10:44.607Z,99721.44
2023-12-22T05:13:11.579Z,99728.34
2023-12-22T05:15:38.480Z,99732.72
2023-12-22T05:18:06.053Z,99752.03
2023-12-22T05:20:33.049Z,99754.59
2023-12-22T05:23:00.277Z,99756.25
2023-12-22T05:25:27.340Z,99747.88
2023-12-22T05:27:54.355Z,99722.06
2023-12-22T05:30:21.512Z,99737.00
2023-12-22T05:32:48.419Z,99744.78
2023-12-22T05:35:15.484Z,99755.47
2023-12-22T05:37:42.525Z,99772.41
2023-12-22T05:40:11.075Z,99764.63
2023-12-22T05:42:38.210Z,99759.56
2023-12-22T05:45:07.634Z,99759.63
2023-12-22T05:47:34.783Z,99744.78
2023-12-22T05:50:01.958Z,99747.50
2023-12-22T05:52:29.358Z,99755.63
2023-12-22T05:55:09.102Z,99763.66
2023-12-22T05:57:36.792Z,99769.03
2023-12-22T06:00:17.407Z,99761.66
2023-12-22T06:02:45.344Z,99748.81
2023-12-22T06:05:12.319Z,99752.72
2023-12-22T06:07:39.289Z,99750.91
2023-12-22T06:10:08.151Z,99750.28
2023-12-22T06:12:35.185Z,99763.03
2023-12-22T06:15:02.252Z,99766.22
2023-12-22T06:17:29.138Z,99783.41
2023-12-22T06:19:56.252Z,99793.84
2023-12-22T06:22:24.278Z,99793.53
2023-12-22T06:24:51.253Z,99788.81
2023-12-22T06:27:18.204Z,99789.34
2023-12-22T06:29:45.176Z,99806.72
2023-12-22T06:32:13.208Z,99809.38
2023-12-22T06:34:40.354Z,99814.66
2023-12-22T06:37:09.183Z,99813.88
2023-12-22T06:39:36.031Z,99815.69
2023-12-22T06:42:03.013Z,99817.66
2023-12-22T06:44:30.947Z,99830.28
2023-12-22T06:46:57.857Z,99834.97
2023-12-22T06:49:24.881Z,99834.34
2023-12-22T06:51:51.840Z,99845.47
2023-12-22T06:54:18.972Z,99852.84
2023-12-22T06:56:46.963Z,99846.69
2023-12-22T06:59:15.756Z,99844.03
2023-12-22T07:01:52.082Z,99841.34
2023-12-22T07:05:05.615Z,99830.66
2023-12-22T07:07:33.626Z,99842.66
2023-12-22T07:10:02.305Z,99848.06
2023-12-22T07:12:29.248Z,99860.13
2023-12-22T07:14:56.331Z,99852.47
2023-12-22T07:17:23.341Z,99858.44
2023-12-22T07:19:53.465Z,99861.19
2023-12-22T07:22:20.720Z,99866.28
2023-12-22T07:24:47.642Z,99871.63
2023-12-22T07:27:14.569Z,99870.22
2023-12-22T07:29:41.606Z,99876.59
2023-12-22T07:32:08.594Z,99880.78
2023-12-22T07:34:38.532Z,99881.50
2023-12-22T07:37:10.200Z,99889.84
2023-12-22T07:39:38.389Z,99890.44
2023-12-22T07:42:05.813Z,99899.91
2023-12-22T07:44:34.027Z,99896.53
2023-12-22T07:47:03.305Z,99896.03
2023-12-22T07:49:31.300Z,99898.59
2023-12-22T07:51:59.504Z,99905.53
2023-12-22T07:54:27.214Z,99900.75
2023-12-22T07:56:54.327Z,99899.50
2023-12-22T07:59:29.599Z,99895.28
2023-12-22T08:01:58.467Z,99893.25
2023-12-22T08:04:25.507Z,99890.28
2023-12-22T08:06:53.532Z,99896.72
2023-12-22T08:09:20.649Z,99895.06
2023-12-22T08:11:48.835Z,99905.84
2023-12-22T08:14:16.077Z,99908.34
2023-12-22T08:16:44.784Z,99915.25
2023-12-22T08:19:11.904Z,99926.56
2023-12-22T08:21:46.073Z,99924.75
2023-12-22T08:24:20.677Z,99942.03
2023-12-22T08:26:51.434Z,99945.31
2023-12-22T08:29:20.071Z,99956.63
2023-12-22T08:31:47.753Z,99951.06
2023-12-22T08:34:14.798Z,99944.34
2023-12-22T08:36:42.024Z,99945.81
2023-12-22T08:39:09.600Z,99951.06
2023-12-22T08:41:38.486Z,99963.81
2023-12-22T08:44:07.386Z,99960.94
2023-12-22T08:46:35.620Z,99973.69
2023-12-22T08:49:04.033Z,99952.47
2023-12-22T08:51:31.338Z,99972.63
2023-12-22T08:53:59.321Z,99975.38
2023-12-22T08:56:27.558Z,99973.78
2023-12-22T08:58:56.518Z,99982.56
2023-12-22T09:01:24.089Z,99983.41
2023-12-22T09:03:51.181Z,100000.59
2023-12-22T09:06:23.854Z,100000.47
2023-12-22T09:08:51.279Z,100006.44
2023-12-22T09:11:20.895Z,99994.06
2023-12-22T09:13:47.932Z,99994.44
2023-12-22T09:16:17.550Z,100000.41
2023-12-22T09:18:46.235Z,100007.59
2023-12-22T09:21:13.515Z,100012.59
2023-12-22T09:23:40.567Z,100016.63
2023-12-22T09:26:07.521Z,100008.16
2023-12-22T09:28:34.483Z,99998.69
2023-12-22T09:31:01.363Z,99985.47
2023-12-22T09:33:28.252Z,99993.78
2023-12-22T09:35:55.459Z,99991.63
2023-12-22T09:38:25.004Z,99985.72
2023-12-22T09:40:54.345Z,99988.16
2023-12-22T09:43:21.751Z,99991.91
2023-12-22T09:45:50.679Z,99992.19
2023-12-22T09:48:28.349Z,99993.28
2023-12-22T09:50:56.864Z,99994.66
2023-12-22T09:53:26.540Z,99990.13
2023-12-22T09:55:55.712Z,99978.94
2023-12-22T09:58:24.052Z,99978.59
2023-12-22T10:00:52.441Z,99979.91
2023-12-22T10:03:21.633Z,99961.25
2023-12-22T10:05:48.874Z,99958.56
2023-12-22T10:08:17.966Z,99947.84
2023-12-22T10:10:48.626Z,99955.88
2023-12-22T10:13:16.384Z,99955.53
2023-12-22T10:15:46.594Z,99949.78
2023-12-22T10:18:14.364Z,99954.91
2023-12-22T10:20:41.562Z,99956.25
2023-12-22T10:23:08.672Z,99953.41
2023-12-22T10:25:35.719Z,99940.00
2023-12-22T10:28:03.232Z,99950.38
2023-12-22T10:30:30.334Z,99949.38
2023-12-22T10:32:57.415Z,99956.94
2023-12-22T10:35:24.750Z,99960.94
2023-12-22T10:37:55.122Z,99958.34
2023-12-22T10:40:23.819Z,99946.97
2023-12-22T10:42:52.316Z,99931.56
2023-12-22T10:45:20.099Z,99941.84
2023-12-22T10:47:47.722Z,99939.13
2023-12-22T10:50:15.479Z,99946.06
2023-12-22T10:52:42.490Z,99934.06
2023-12-22T10:55:09.953Z,99921.13
2023-12-22T10:57:39.561Z,99920.34
2023-12-22T11:00:12.254Z,99922.50
2023-12-22T11:02:44.711Z,99920.81
2023-12-22T11:05:13.737Z,99920.91
2023-12-22T11:07:49.513Z,99912.63
2023-12-22T11:10:21.792Z,99911.72
2023-12-22T11:12:50.236Z,99913.44
2023-12-22T11:15:20.788Z,99921.38
2023-12-22T11:17:50.669Z,99930.16
2023-12-22T11:20:19.609Z,99913.47
2023-12-22T11:22:51.650Z,99903.50
2023-12-22T11:25:22.305Z,99894.28
2023-12-22T11:27:50.200Z,99891.19
2023-12-22T11:30:18.212Z,99908.28
2023-12-22T11:32:45.558Z,99907.31
2023-12-22T11:35:12.858Z,99888.50
2023-12-22T11:37:40.674Z,99886.38
2023-12-22T11:40:08.760Z,99887.06
2023-12-22T11:42:46.547Z,99870.34
2023-12-22T11:45:17.257Z,99876.19
2023-12-22T11:47:44.876Z,99883.69
2023-12-22T11:50:13.505Z,99900.50
2023-12-22T11:52:41.035Z,99883.97
2023-12-22T11:55:08.743Z,99880.16
2023-12-22T11:57:39.919Z,99896.13
2023-12-22T12:00:09.147Z,99890.91
2023-12-22T12:02:42.290Z,99884.78
2023-12-22T12:05:12.723Z,99886.75
2023-12-22T12:07:50.528Z,99879.69
2023-12-22T12:10:32.898Z,99878.00
2023-12-22T12:13:10.898Z,99877.72
2023-12-22T12:15:39.352Z,99887.75
2023-12-22T12:18:07.225Z,99887.19
2023-12-22T12:20:35.247Z,99874.13
2023-12-22T12:23:04.193Z,99883.47
2023-12-22T12:25:36.806Z,99879.81
2023-12-22T12:28:15.773Z,99880.75
2023-12-22T12:30:44.142Z,99872.41
2023-12-22T12:33:13.639Z,99853.25
2023-12-22T12:35:47.387Z,99865.03
2023-12-22T12:38:22.430Z,99865.28
2023-12-22T12:40:54.801Z,99850.78
2023-12-22T12:43:22.262Z,99846.94
2023-12-22T12:45:49.521Z,99835.00
2023-12-22T12:48:23.512Z,99834.00
2023-12-22T12:50:51.733Z,99841.19
2023-12-22T12:53:19.055Z,99845.59
2023-12-22T12:55:46.898Z,99820.31
2023-12-22T12:58:14.121Z,99833.50
2023-12-22T13:00:41.366Z,99820.72
2023-12-22T13:03:08.603Z,99818.34
2023-12-22T13:05:37.576Z,99821.97
2023-12-22T13:08:13.469Z,99818.75
2023-12-22T13:10:42.747Z,99824.50
2023-12-22T13:13:10.090Z,99819.97
2023-12-22T13:15:42.471Z,99828.75
2023-12-22T13:18:10.646Z,99827.63
2023-12-22T13:20:38.185Z,99835.53
2023-12-22T13:23:05.391Z,99830.00
2023-12-22T13:25:42.457Z,99836.38
2023-12-22T13:28:09.436Z,99839.06
2023-12-22T13:30:45.357Z,99836.25
2023-12-22T13:33:12.440Z,99841.09
2023-12-22T13:35:42.798Z,99831.00
2023-12-22T13:38:12.147Z,99834.56
2023-12-22T13:40:40.776Z,99839.78
2023-12-22T13:43:08.884Z,99849.72
2023-12-22T13:45:36.932Z,99841.94
2023-12-22T13:48:04.845Z,99844.94
2023-12-22T13:50:31.908Z,99844.94
2023-12-22T13:53:10.146Z,99838.41
2023-12-22T13:55:38.846Z,99831.63
2023-12-22T13:58:06.114Z,99836.31
2023-12-22T14:00:33.531Z,99837.31
2023-12-22T14:03:02.944Z,99847.09
2023-12-22T14:05:32.945Z,99848.09
2023-12-22T14:08:04.982Z,99855.47
2023-12-22T14:10:32.477Z,99848.53
2023-12-22T14:12:59.437Z,99853.38
2023-12-22T14:15:37.228Z,99845.88
2023-12-22T14:18:09.621Z,99853.59
2023-12-22T14:20:36.714Z,99842.69
2023-12-22T14:23:05.073Z,99837.22
2023-12-22T14:25:33.276Z,99852.09
2023-12-22T14:28:00.578Z,99853.53
2023-12-22T14:30:27.910Z,99846.16
2023-12-22T14:32:55.561Z,99849.44
2023-12-22T14:35:22.619Z,99846.50
2023-12-22T14:37:50.323Z,99838.44
2023-12-22T14:40:18.042Z,99842.84
2023-12-22T14:42:45.238Z,99852.50
2023-12-22T14:45:12.241Z,99848.81
2023-12-22T14:47:39.176Z,99844.88
2023-12-22T14:50:07.450Z,99832.69
2023-12-22T14:52:34.908Z,99831.56
2023-12-22T14:55:02.280Z,99831.00
2023-12-22T14:57:32.079Z,99827.59
2023-12-22T14:59:59.112Z,99829.16
2023-12-22T15:02:26.348Z,99832.13
2023-12-22T15:04:54.460Z,99828.03
2023-12-22T15:07:22.312Z,99827.59
2023-12-22T15:09:49.928Z,99828.59
2023-12-22T15:12:17.387Z,99826.06
2023-12-22T15:14:46.481Z,99827.56
2023-12-22T15:17:14.318Z,99829.41
2023-12-22T15:19:45.823Z,99830.56
2023-12-22T15:22:13.320Z,99839.00
2023-12-22T15:24:44.633Z,99846.94
2023-12-22T15:27:12.724Z,99853.56
2023-12-22T15:29:39.862Z,99844.94
2023-12-22T15:32:07.193Z,99844.78
2023-12-22T15:34:34.260Z,99844.06
2023-12-22T15:37:01.207Z,99845.44
2023-12-22T15:39:28.055Z,99842.06
2023-12-22T15:41:55.072Z,99851.38
2023-12-22T15:44:22.164Z,99847.25
2023-12-22T15:46:49.165Z,99842.16
2023-12-22T15:49:16.118Z,99854.31
2023-12-22T15:51:43.058Z,99838.75
2023-12-22T15:54:10.068Z,99855.25
2023-12-22T15:56:37.009Z,99841.50
2023-12-22T15:59:04.037Z,99847.56
2023-12-22T16:01:30.959Z,99853.22
2023-12-22T16:03:58.022Z,99844.56
2023-12-22T16:06:25.280Z,99840.56
2023-12-22T16:08:52.497Z,99834.63
2023-12-22T16:11:21.734Z,99842.94
2023-12-22T16:13:48.739Z,99842.38
2023-12-22T16:16:20.400Z,99825.78
2023-12-22T16:18:48.295Z,99821.66
2023-12-22T16:21:15.761Z,99830.81
2023-12-22T16:23:42.734Z,99834.91
2023-12-22T16:26:10.061Z,99836.38
2023-12-22T16:28:37.479Z,99838.63
2023-12-22T16:31:04.926Z,99830.09
2023-12-22T16:33:32.165Z,99829.66
2023-12-22T16:35:59.268Z,99827.38
2023-12-22T16:38:26.186Z,99823.25
2023-12-22T16:40:53.683Z,99827.19
2023-12-22T16:43:20.882Z,99815.28
2023-12-22T16:45:47.732Z,99826.63
2023-12-22T16:48:14.690Z,99828.25
2023-12-22T16:50:41.766Z,99827.31
2023-12-22T16:53:08.762Z,99815.56
2023-12-22T16:55:35.960Z,99816.75
2023-12-22T16:58:02.978Z,99800.56
2023-12-22T17:00:29.971Z,99808.47
2023-12-22T17:02:57.416Z,99804.81
2023-12-22T17:05:26.021Z,99792.28
2023-12-22T17:07:53.900Z,99801.16
2023-12-22T17:10:21.082Z,99810.03
2023-12-22T17:12:48.383Z,99808.94
2023-12-22T17:15:15.480Z,99804.56
2023-12-22T17:17:42.607Z,99805.28
2023-12-22T17:20:11.512Z,99807.84
2023-12-22T17:22:38.817Z,99818.44
2023-12-22T17:25:06.101Z,99819.28
2023-12-22T17:27:32.973Z,99804.19
2023-12-22T17:29:59.901Z,99807.50
2023-12-22T17:32:27.262Z,99806.38
2023-12-22T17:34:54.432Z,99803.59
2023-12-22T17:37:21.284Z,99802.84
2023-12-22T17:39:48.122Z,99807.50
2023-12-22T17:42:15.162Z,99805.53
2023-12-22T17:44:41.998Z,99807.50
2023-12-22T17:47:09.102Z,99801.16
2023-12-22T17:49:36.107Z,99806.19
2023-12-22T17:52:03.661Z,99812.28
2023-12-22T17:54:30.564Z,99811.41
2023-12-22T17:57:01.683Z,99807.75
2023-12-22T17:59:29.189Z,99808.28
2023-12-22T18:01:56.601Z,99797.66
2023-12-22T18:04:24.364Z,99798.53
2023-12-22T18:06:51.275Z,99802.91
2023-12-22T18:09:18.249Z,99810.69
2023-12-22T18:11:46.620Z,99807.16
2023-12-22T18:14:13.850Z,99810.94
2023-12-22T18:16:44.009Z,99809.13
2023-12-22T18:19:12.822Z,99808.28
2023-12-22T18:21:40.636Z,99808.63
2023-12-22T18:24:07.818Z,99811.06
2023-12-22T18:26:34.804Z,99815.47
2023-12-22T18:29:02.274Z,99809.38
2023-12-22T18:31:29.699Z,99807.16
2023-12-22T18:33:57.802Z,99813.50
2023-12-22T18:36:25.264Z,99802.06
2023-12-22T18:38:52.224Z,99806.56
2023-12-22T18:41:19.365Z,99807.03
2023-12-22T18:43:46.577Z,99817.88
2023-12-22T18:46:13.685Z,99808.97
2023-12-22T18:48:45.190Z,99809.38
2023-12-22T18:51:16.126Z,99821.66
2023-12-22T18:53:43.103Z,99813.88
2023-12-22T18:56:11.388Z,99819.09
2023-12-22T18:58:40.756Z,99817.41
2023-12-22T19:01:15.002Z,99816.31
2023-12-22T19:03:48.905Z,99824.09
2023-12-22T19:06:16.327Z,99825.06
2023-12-22T19:08:43.361Z,99818.59
2023-12-22T19:11:12.665Z,99827.22
2023-12-22T19:13:41.234Z,99827.97
2023-12-22T19:16:08.629Z,99829.53
2023-12-22T19:18:36.237Z,99832.34
2023-12-22T19:21:04.275Z,99832.72
2023-12-22T19:23:34.120Z,99832.25
2023-12-22T19:26:04.858Z,99821.41
2023-12-22T19:28:33.899Z,99828.00
2023-12-22T19:31:00.887Z,99835.91
2023-12-22T19:33:28.157Z,99831.53
2023-12-22T19:35:55.295Z,99839.59
2023-12-22T19:38:23.530Z,99833.38
2023-12-22T19:40:53.632Z,99828.88
2023-12-22T19:43:22.560Z,99826.03
2023-12-22T19:45:49.488Z,99822.78
2023-12-22T19:48:16.522Z,99836.16
2023-12-22T19:50:46.038Z,99833.63
2023-12-22T19:53:13.350Z,99840.44
2023-12-22T19:55:40.524Z,99843.22
2023-12-22T19:58:07.533Z,99863.47
2023-12-22T20:00:34.619Z,99852.63
2023-12-22T20:03:01.719Z,99858.00
2023-12-22T20:05:42.088Z,99860.91
2023-12-22T20:08:15.276Z,99874.56
2023-12-22T20:10:42.341Z,99874.06
2023-12-22T20:13:10.248Z,99867.13
2023-12-22T20:15:37.477Z,99881.66
2023-12-22T20:18:06.944Z,99881.91
2023-12-22T20:20:43.941Z,99877.84
2023-12-22T20:23:33.230Z,99872.88
2023-12-22T20:26:14.501Z,99879.19
2023-12-22T20:28:44.906Z,99864.44
2023-12-22T20:31:12.188Z,99856.69
2023-12-22T20:33:39.233Z,99868.50
2023-12-22T20:36:06.841Z,99871.41
2023-12-22T20:38:33.813Z,99875.31
2023-12-22T20:41:01.024Z,99889.91
2023-12-22T20:43:28.435Z,99890.97
2023-12-22T20:45:55.420Z,99900.25
2023-12-22T20:48:22.754Z,99905.84
2023-12-22T20:50:50.033Z,99905.00
2023-12-22T20:53:17.294Z,99916.78
2023-12-22T20:55:45.911Z,99918.84
2023-12-22T20:58:13.069Z,99921.16
2023-12-22T21:00:40.050Z,99921.75
2023-12-22T21:03:07.044Z,99923.44
2023-12-22T21:05:34.405Z,99930.25
2023-12-22T21:08:01.509Z,99928.03
2023-12-22T21:10:28.709Z,99923.84
2023-12-22T21:12:55.916Z,99935.16
2023-12-22T21:15:23.089Z,99930.50
2023-12-22T21:17:51.784Z,99927.44
2023-12-22T21:20:21.443Z,99926.94
2023-12-22T21:22:48.628Z,99932.28
2023-12-22T21:25:16.900Z,99935.28
2023-12-22T21:27:44.320Z,99942.69
2023-12-22T21:30:13.405Z,99937.69
2023-12-22T21:32:40.582Z,99941.53
2023-12-22T21:35:07.908Z,99940.47
2023-12-22T21:37:34.951Z,99941.44
2023-12-22T21:40:02.152Z,99930.97
2023-12-22T21:42:30.073Z,99938.75
2023-12-22T21:44:57.372Z,99936.81
2023-12-22T21:47:24.313Z,99927.63
2023-12-22T21:49:51.250Z,99929.94
2023-12-22T21:52:18.191Z,99927.16
2023-12-22T21:54:45.845Z,99922.53
2023-12-22T21:57:20.089Z,99925.22
2023-12-22T21:59:49.116Z,99934.47
2023-12-22T22:02:16.589Z,99932.53
2023-12-22T22:04:43.604Z,99935.63
2023-12-22T22:07:10.825Z,99934.53
2023-12-22T22:09:37.766Z,99950.34
2023-12-22T22:12:05.387Z,99939.19
2023-12-22T22:14:32.301Z,99945.03
2023-12-22T22:16:59.236Z,99948.31
2023-12-22T22:19:26.299Z,99945.94
2023-12-22T22:21:54.264Z,99951.03
2023-12-22T22:24:21.410Z,99946.31
2023-12-22T22:26:48.351Z,99958.00
2023-12-22T22:29:16.520Z,99961.38
2023-12-22T22:31:48.875Z,99953.13
2023-12-22T22:34:15.822Z,99962.88
2023-12-22T22:36:48.685Z,99959.31
2023-12-22T22:39:22.445Z,99968.22
2023-12-22T22:41:54.109Z,99972.47
2023-12-22T22:44:22.952Z,99970.19
2023-12-22T22:46:53.221Z,99971.78
2023-12-22T22:49:21.522Z,99960.97
2023-12-22T22:51:48.443Z,99950.88
2023-12-22T22:54:15.416Z,99967.53
2023-12-22T22:56:43.385Z,99971.19
2023-12-22T22:59:10.738Z,99962.75
2023-12-22T23:01:38.133Z,99964.97
2023-12-22T23:04:05.326Z,99967.78
2023-12-22T23:06:32.485Z,99991.59
2023-12-22T23:09:03.668Z,99984.03
2023-12-22T23:11:30.895Z,99981.63
2023-12-22T23:13:58.091Z,99971.75
2023-12-22T23:16:25.230Z,99983.31
2023-12-22T23:18:53.620Z,99975.00
2023-12-22T23:21:20.724Z,99994.19
2023-12-22T23:23:47.583Z,100009.75
2023-12-22T23:26:14.973Z,100004.84
2023-12-22T23:28:42.049Z,100006.91
2023-12-22T23:31:09.123Z,100024.63
2023-12-22T23:33:36.900Z,100010.84
2023-12-22T23:36:13.914Z,100019.94
2023-12-22T23:38:49.346Z,100021.25
2023-12-22T23:41:16.535Z,100021.59
2023-12-22T23:43:43.726Z,100021.81
2023-12-22T23:46:10.780Z,100023.88
2023-12-22T23:48:40.084Z,100034.03
2023-12-22T23:51:08.680Z,100024.53
2023-12-22T23:53:35.774Z,100024.75
2023-12-22T23:56:02.700Z,100019.41
2023-12-22T23:58:29.647Z,100025.38
